Time;durP1;ratioP1;P1;durP2;ratioP2;P2;SDS_P1;SDS_P2;PMS_P1;PMS_P2;Temp;Humidity;BMP_temperature;BMP_pressure;BME280_temperature;BME280_humidity;BME280_pressure;Samples;Min_cycle;Max_cycle;Signal;HPM_P1;HPM_P2
2021/07/01 00:01:25;;;;;;;2.28;1.77;;;13.80;52.40;;;;;;5159425;27;20121;-69
2021/07/01 00:04:06;;;;;;;2.72;1.80;;;13.70;52.00;;;;;;5170011;27;20118;-70
2021/07/01 00:06:48;;;;;;;2.28;1.77;;;13.80;52.00;;;;;;5154589;27;20624;-69
2021/07/01 00:09:28;;;;;;;2.08;1.88;;;13.90;52.30;;;;;;5159794;27;20110;-69
2021/07/01 00:12:10;;;;;;;2.88;2.05;;;13.90;52.00;;;;;;5157731;27;20310;-70
2021/07/01 00:14:49;;;;;;;3.88;2.10;;;13.90;51.30;;;;;;5135627;27;20110;-69
2021/07/01 00:17:29;;;;;;;3.83;1.92;;;13.90;51.90;;;;;;5164004;27;20101;-69
2021/07/01 00:20:12;;;;;;;2.95;2.10;;;13.80;51.00;;;;;;5170393;27;20526;-71
2021/07/01 00:22:53;;;;;;;4.82;2.80;;;13.90;51.60;;;;;;5157907;27;20111;-70
2021/07/01 00:25:33;;;;;;;3.88;2.80;;;13.80;50.20;;;;;;5155246;27;20123;-71
2021/07/01 00:28:13;;;;;;;4.35;3.10;;;13.80;50.60;;;;;;5170120;27;20483;-69
2021/07/01 00:30:52;;;;;;;3.58;3.00;;;13.70;50.40;;;;;;5136085;27;20100;-70
2021/07/01 00:33:34;;;;;;;6.10;3.53;;;13.70;50.30;;;;;;5156818;27;20186;-69
2021/07/01 00:36:14;;;;;;;5.50;3.95;;;13.70;49.40;;;;;;5134077;27;20134;-69
2021/07/01 00:38:53;;;;;;;4.15;3.67;;;13.70;50.10;;;;;;5152441;27;20585;-69
2021/07/01 00:41:34;;;;;;;5.60;3.90;;;13.70;50.40;;;;;;5163639;27;20127;-70
2021/07/01 00:44:13;;;;;;;4.78;3.67;;;13.70;50.10;;;;;;5171475;27;20472;-70
2021/07/01 00:46:55;;;;;;;6.10;3.70;;;13.80;50.00;;;;;;5122551;27;20120;-69
2021/07/01 00:49:36;;;;;;;6.10;4.15;;;13.70;49.30;;;;;;5092035;27;20121;-70
2021/07/01 00:52:16;;;;;;;6.40;3.50;;;13.70;50.20;;;;;;5164287;27;20485;-69
2021/07/01 00:54:56;;;;;;;6.43;3.58;;;13.70;49.10;;;;;;5128412;27;20119;-70
2021/07/01 00:57:36;;;;;;;5.78;3.25;;;13.70;51.10;;;;;;5156078;27;20118;-69
2021/07/01 01:00:25;;;;;;;10.02;3.35;;;13.70;49.70;;;;;;5157139;27;20110;-70
2021/07/01 01:03:05;;;;;;;3.42;2.88;;;13.70;48.30;;;;;;5163991;27;20102;-69
2021/07/01 01:05:46;;;;;;;4.18;2.90;;;13.70;48.70;;;;;;5144740;27;20119;-69
2021/07/01 01:08:26;;;;;;;4.28;2.90;;;13.70;49.50;;;;;;5158619;27;20110;-69
2021/07/01 01:11:06;;;;;;;3.47;2.47;;;13.70;46.80;;;;;;5165882;27;20115;-69
2021/07/01 01:13:55;;;;;;;4.63;2.70;;;13.70;47.30;;;;;;5174263;27;20097;-68
2021/07/01 01:16:46;;;;;;;5.00;2.50;;;13.70;46.10;;;;;;5144512;27;20123;-69
2021/07/01 01:19:26;;;;;;;4.35;2.38;;;13.70;48.20;;;;;;5170050;27;20114;-70
2021/07/01 01:22:06;;;;;;;4.47;2.38;;;13.70;47.10;;;;;;5157853;27;20107;-69
2021/07/01 01:24:50;;;;;;;5.15;2.63;;;13.70;48.60;;;;;;5155992;27;20098;-69
2021/07/01 01:27:30;;;;;;;2.85;2.33;;;13.70;46.00;;;;;;5172831;27;20113;-69
2021/07/01 01:30:11;;;;;;;3.50;2.53;;;13.60;45.10;;;;;;5158306;27;20106;-70
2021/07/01 01:33:00;;;;;;;2.33;2.13;;;13.60;48.20;;;;;;5164281;27;20209;-70
2021/07/01 01:35:40;;;;;;;4.68;2.80;;;13.60;46.50;;;;;;5156316;27;20118;-69
2021/07/01 01:38:20;;;;;;;3.72;2.47;;;13.50;46.70;;;;;;5154377;27;20565;-69
2021/07/01 01:41:01;;;;;;;4.75;2.30;;;13.60;44.80;;;;;;5134016;27;20533;-69
2021/07/01 01:43:40;;;;;;;3.40;2.53;;;13.50;44.10;;;;;;5173551;27;20105;-70
2021/07/01 01:46:20;;;;;;;3.88;2.78;;;13.60;44.60;;;;;;5122011;27;20115;-69
2021/07/01 01:49:02;;;;;;;3.60;2.90;;;13.60;45.00;;;;;;5156152;27;20174;-69
2021/07/01 01:51:41;;;;;;;3.83;2.92;;;13.60;42.60;;;;;;5140562;27;20566;-69
2021/07/01 01:54:23;;;;;;;4.07;2.70;;;13.60;44.20;;;;;;5155154;27;20189;-69
2021/07/01 01:57:02;;;;;;;3.08;2.78;;;13.70;42.70;;;;;;5140090;27;20107;-68
2021/07/01 02:00:06;;;;;;;5.35;3.10;;;13.70;44.50;;;;;;5157276;27;20739;-69
2021/07/01 02:03:05;;;;;;;3.80;3.28;;;13.70;44.00;;;;;;5156747;27;20114;-69
2021/07/01 02:05:54;;;;;;;5.85;3.20;;;13.60;43.30;;;;;;5145264;27;20475;-69
2021/07/01 02:08:34;;;;;;;5.72;3.22;;;13.60;44.40;;;;;;5156806;27;20110;-69
2021/07/01 02:11:16;;;;;;;4.47;3.28;;;13.60;44.40;;;;;;5170183;27;20102;-69
2021/07/01 02:13:55;;;;;;;3.90;3.50;;;13.60;45.90;;;;;;5151764;27;20118;-70
2021/07/01 02:17:05;;;;;;;6.78;3.38;;;13.70;46.00;;;;;;5157036;27;20106;-69
2021/07/01 02:19:48;;;;;;;3.45;2.83;;;13.70;44.70;;;;;;5156894;27;20520;-69
2021/07/01 02:22:27;;;;;;;4.03;3.22;;;13.70;43.80;;;;;;5174978;27;20105;-69
2021/07/01 02:25:09;;;;;;;4.95;3.00;;;13.70;44.30;;;;;;5152201;27;20124;-68
2021/07/01 02:27:51;;;;;;;6.25;3.08;;;13.70;46.40;;;;;;5158779;27;20110;-69
2021/07/01 02:30:31;;;;;;;4.15;3.00;;;13.60;44.70;;;;;;5170519;27;20098;-69
2021/07/01 02:33:11;;;;;;;4.60;2.83;;;13.70;45.80;;;;;;5153894;27;20114;-69
2021/07/01 02:35:51;;;;;;;5.28;3.03;;;13.70;45.00;;;;;;5132768;27;20107;-69
2021/07/01 02:38:52;;;;;;;3.50;2.83;;;13.60;43.60;;;;;;5133589;27;20531;-69
2021/07/01 02:41:31;;;;;;;5.28;3.28;;;13.70;44.30;;;;;;5162961;27;20107;-69
2021/07/01 02:44:11;;;;;;;4.47;3.30;;;13.70;45.70;;;;;;5158762;27;20125;-69
2021/07/01 02:47:09;;;;;;;6.15;3.45;;;13.80;44.50;;;;;;5181192;27;20102;-70
2021/07/01 02:49:52;;;;;;;3.95;3.05;;;13.90;45.00;;;;;;5154776;27;20189;-70
2021/07/01 02:52:40;;;;;;;3.40;3.10;;;13.80;44.60;;;;;;5159218;27;20178;-69
2021/07/01 02:55:22;;;;;;;4.78;2.67;;;13.70;44.30;;;;;;5153196;27;20119;-69
2021/07/01 02:58:02;;;;;;;4.40;3.03;;;13.70;43.10;;;;;;5168764;27;20122;-69
2021/07/01 03:00:42;;;;;;;4.38;3.63;;;13.60;42.30;;;;;;5152921;27;20119;-69
2021/07/01 03:03:22;;;;;;;3.92;3.03;;;13.70;43.40;;;;;;5169376;27;20117;-68
2021/07/01 03:06:13;;;;;;;4.65;3.28;;;13.60;42.40;;;;;;5162480;27;20115;-69
2021/07/01 03:08:54;;;;;;;4.78;3.28;;;13.70;43.00;;;;;;5163940;27;20110;-69
2021/07/01 03:11:34;;;;;;;4.22;3.45;;;13.70;44.00;;;;;;5135568;27;20111;-69
2021/07/01 03:14:14;;;;;;;3.33;2.92;;;13.70;43.70;;;;;;5167653;27;20480;-69
2021/07/01 03:16:55;;;;;;;4.80;3.30;;;13.70;44.60;;;;;;5124581;27;20120;-69
2021/07/01 03:19:37;;;;;;;4.28;3.25;;;13.70;43.60;;;;;;5155750;27;20115;-70
2021/07/01 03:22:34;;;;;;;5.13;3.60;;;13.70;44.50;;;;;;5159547;27;19911;-69
2021/07/01 03:25:16;;;;;;;5.15;2.88;;;13.70;44.40;;;;;;5163111;27;20600;-70
2021/07/01 03:27:55;;;;;;;4.40;3.55;;;13.70;45.10;;;;;;5163087;27;20102;-69
2021/07/01 03:30:35;;;;;;;6.68;4.07;;;13.80;44.20;;;;;;5159318;27;20110;-69
2021/07/01 03:33:17;;;;;;;4.25;3.60;;;13.80;45.70;;;;;;5154365;27;20183;-68
2021/07/01 03:35:59;;;;;;;5.97;4.53;;;13.70;47.60;;;;;;5153923;27;20111;-69
2021/07/01 03:39:06;;;;;;;4.10;3.70;;;13.70;47.50;;;;;;5171067;27;20117;-69
2021/07/01 03:42:00;;;;;;;8.57;3.78;;;13.60;47.40;;;;;;5153431;27;20115;-69
2021/07/01 03:44:40;;;;;;;8.13;4.00;;;13.60;47.40;;;;;;5165738;27;20114;-69
2021/07/01 03:47:20;;;;;;;5.55;3.78;;;13.60;48.30;;;;;;5156623;27;20110;-69
2021/07/01 03:50:00;;;;;;;4.60;3.60;;;13.60;47.30;;;;;;5153768;27;20103;-69
2021/07/01 03:53:09;;;;;;;8.57;3.70;;;13.60;46.40;;;;;;5163389;27;20110;-69
2021/07/01 03:55:48;;;;;;;5.22;3.58;;;13.50;46.70;;;;;;5161452;27;20110;-69
2021/07/01 03:58:30;;;;;;;4.28;3.30;;;13.60;48.50;;;;;;5160293;27;20118;-69
2021/07/01 04:01:29;;;;;;;5.15;3.42;;;13.60;47.40;;;;;;5160419;27;20580;-69
2021/07/01 04:04:09;;;;;;;4.72;3.00;;;13.60;48.40;;;;;;5170133;27;20094;-68
2021/07/01 04:06:50;;;;;;;3.30;3.00;;;13.80;47.40;;;;;;5142701;27;20169;-68
2021/07/01 04:09:30;;;;;;;3.22;2.60;;;13.60;46.00;;;;;;5153580;27;20118;-70
2021/07/01 04:12:27;;;;;;;3.75;3.20;;;13.60;48.10;;;;;;5158465;27;20101;-69
2021/07/01 04:15:45;;;;;;;4.68;3.08;;;13.60;47.50;;;;;;5153064;27;20111;-69
2021/07/01 04:18:33;;;;;;;5.93;2.75;;;13.70;48.00;;;;;;5175815;27;20561;-69
2021/07/01 04:21:30;;;;;;;5.35;3.53;;;13.60;46.60;;;;;;5175216;27;20106;-70
2021/07/01 04:24:28;;;;;;;3.65;2.70;;;13.70;49.30;;;;;;5168279;27;20545;-70
2021/07/01 04:27:18;;;;;;;6.18;3.50;;;13.70;50.60;;;;;;5170285;27;20181;-69
2021/07/01 04:29:57;;;;;;;4.15;3.10;;;13.60;52.60;;;;;;5160921;27;20114;-68
2021/07/01 04:32:42;;;;;;;7.03;4.20;;;13.60;52.70;;;;;;5154481;27;20114;-69
2021/07/01 04:35:22;;;;;;;6.25;4.32;;;13.70;53.30;;;;;;5156238;27;20118;-70
2021/07/01 04:38:01;;;;;;;4.60;3.78;;;13.70;53.30;;;;;;5156958;27;20126;-70
2021/07/01 04:40:41;;;;;;;5.25;3.45;;;13.80;54.80;;;;;;5177878;27;20567;-70
2021/07/01 04:43:21;;;;;;;6.53;3.88;;;13.60;52.80;;;;;;5170748;27;20114;-70
2021/07/01 04:46:01;;;;;;;6.00;3.78;;;13.70;52.70;;;;;;5148074;27;20478;-70
2021/07/01 04:48:41;;;;;;;5.28;3.50;;;13.80;53.30;;;;;;5169995;27;20121;-70
2021/07/01 04:51:20;;;;;;;7.47;4.13;;;13.80;52.40;;;;;;5164117;27;20119;-70
2021/07/01 04:54:18;;;;;;;4.00;3.38;;;13.80;52.60;;;;;;5169620;27;20105;-70
2021/07/01 04:57:17;;;;;;;5.97;3.53;;;13.90;51.90;;;;;;5166293;27;20197;-70
2021/07/01 04:59:56;;;;;;;4.63;3.95;;;14.00;50.70;;;;;;5151881;27;20111;-70
2021/07/01 05:02:59;;;;;;;3.63;2.97;;;14.10;51.10;;;;;;5157201;27;20107;-70
2021/07/01 05:05:41;;;;;;;4.55;2.83;;;14.10;50.40;;;;;;5147511;27;20118;-70
2021/07/01 05:08:23;;;;;;;5.05;2.78;;;14.10;49.50;;;;;;5157587;27;20115;-69
2021/07/01 05:11:06;;;;;;;6.22;3.50;;;14.10;50.70;;;;;;5167405;27;20118;-69
2021/07/01 05:13:46;;;;;;;4.47;2.92;;;14.10;50.40;;;;;;5154781;27;20477;-70
2021/07/01 05:16:28;;;;;;;3.75;2.90;;;14.00;46.80;;;;;;5175394;27;20106;-70
2021/07/01 05:19:09;;;;;;;3.75;2.72;;;14.00;48.00;;;;;;5168708;27;20114;-69
2021/07/01 05:22:01;;;;;;;5.28;3.10;;;14.00;48.90;;;;;;5170197;27;20471;-70
2021/07/01 05:25:12;;;;;;;3.42;2.58;;;14.00;48.80;;;;;;5164471;27;20114;-68
2021/07/01 05:28:12;;;;;;;7.32;2.90;;;14.00;46.80;;;;;;5156672;27;20565;-70
2021/07/01 05:31:12;;;;;;;4.00;2.50;;;14.00;47.50;;;;;;5170051;27;20110;-70
2021/07/01 05:34:10;;;;;;;4.40;2.75;;;13.90;46.40;;;;;;5149532;27;20103;-69
2021/07/01 05:36:50;;;;;;;4.55;2.92;;;14.10;48.20;;;;;;5142138;27;20546;-68
2021/07/01 05:39:31;;;;;;;4.03;3.03;;;14.20;47.70;;;;;;5153720;27;20122;-70
2021/07/01 05:42:13;;;;;;;6.95;2.83;;;14.20;45.40;;;;;;5172424;27;20102;-70
2021/07/01 05:44:53;;;;;;;4.60;2.58;;;14.20;47.40;;;;;;5156416;27;20098;-68
2021/07/01 05:47:36;;;;;;;4.03;3.10;;;14.00;46.70;;;;;;5154514;27;20536;-68
2021/07/01 05:50:17;;;;;;;5.43;2.83;;;14.00;47.90;;;;;;5172075;27;20568;-70
2021/07/01 05:52:59;;;;;;;4.07;2.80;;;14.20;47.90;;;;;;5159990;27;20122;-69
2021/07/01 05:55:38;;;;;;;4.30;3.10;;;14.10;47.00;;;;;;5158034;27;20121;-70
2021/07/01 05:58:20;;;;;;;5.53;2.75;;;14.20;49.10;;;;;;5171382;27;20181;-70
2021/07/01 06:00:59;;;;;;;4.15;2.88;;;14.20;46.80;;;;;;5155661;27;20102;-70
2021/07/01 06:03:39;;;;;;;6.28;3.53;;;14.10;46.50;;;;;;5162336;27;20456;-69
2021/07/01 06:06:50;;;;;;;4.25;2.50;;;14.20;45.50;;;;;;5134043;27;20119;-69
2021/07/01 06:09:34;;;;;;;4.93;3.08;;;14.10;42.70;;;;;;5156610;27;20800;-70
2021/07/01 06:12:14;;;;;;;7.80;2.38;;;14.20;45.30;;;;;;5157269;27;20119;-70
2021/07/01 06:14:58;;;;;;;3.60;2.90;;;14.10;44.70;;;;;;5153250;27;20472;-69
2021/07/01 06:17:37;;;;;;;4.30;3.20;;;14.10;42.40;;;;;;5168209;27;20106;-70
2021/07/01 06:20:19;;;;;;;3.42;2.95;;;14.20;45.00;;;;;;5152622;27;20546;-69
2021/07/01 06:22:58;;;;;;;5.65;3.08;;;14.10;44.10;;;;;;5155808;27;20119;-70
2021/07/01 06:25:38;;;;;;;3.78;3.42;;;14.20;44.70;;;;;;5168875;27;20114;-70
2021/07/01 06:28:20;;;;;;;6.18;3.25;;;14.20;44.50;;;;;;5143320;27;20115;-70
2021/07/01 06:31:01;;;;;;;5.10;3.47;;;14.10;44.90;;;;;;5172440;27;20181;-68
2021/07/01 06:33:42;;;;;;;4.88;3.10;;;14.20;45.00;;;;;;5153133;27;20119;-69
2021/07/01 06:36:25;;;;;;;3.55;2.60;;;14.20;43.70;;;;;;5152009;27;20113;-69
2021/07/01 06:39:28;;;;;;;4.88;3.05;;;14.20;41.80;;;;;;5173979;27;20572;-69
2021/07/01 06:42:29;;;;;;;8.13;3.25;;;14.30;41.90;;;;;;5159647;27;20464;-70
2021/07/01 06:45:27;;;;;;;3.75;2.45;;;14.50;41.40;;;;;;5148120;27;20103;-69
2021/07/01 06:48:27;;;;;;;8.45;2.80;;;14.40;40.90;;;;;;5175432;27;20109;-69
2021/07/01 06:51:28;;;;;;;5.00;3.42;;;14.60;42.80;;;;;;5152873;27;20193;-69
2021/07/01 06:54:28;;;;;;;7.82;2.67;;;14.60;41.10;;;;;;5167205;27;20118;-69
2021/07/01 06:57:26;;;;;;;4.80;2.67;;;14.60;40.00;;;;;;5158226;27;20110;-69
2021/07/01 07:00:08;;;;;;;5.68;2.70;;;14.60;38.00;;;;;;5155224;27;20118;-69
2021/07/01 07:02:48;;;;;;;7.07;2.55;;;14.70;39.80;;;;;;5132573;27;20457;-69
2021/07/01 07:05:27;;;;;;;4.30;2.83;;;14.70;39.10;;;;;;5153670;27;20115;-70
2021/07/01 07:08:09;;;;;;;12.07;6.95;;;14.70;38.90;;;;;;5154079;27;20106;-69
2021/07/01 07:10:51;;;;;;;4.63;2.85;;;14.80;39.60;;;;;;5158662;27;20639;-69
2021/07/01 07:13:30;;;;;;;4.03;2.55;;;14.70;38.40;;;;;;5171950;27;20118;-69
2021/07/01 07:16:11;;;;;;;5.53;2.83;;;14.80;39.70;;;;;;5149885;27;20127;-69
2021/07/01 07:18:53;;;;;;;4.28;2.70;;;14.90;39.70;;;;;;5153900;27;20155;-69
2021/07/01 07:21:39;;;;;;;4.28;2.65;;;14.80;36.00;;;;;;5110203;27;20590;-69
2021/07/01 07:24:21;;;;;;;4.60;2.60;;;14.80;36.50;;;;;;5169677;27;20105;-69
2021/07/01 07:27:03;;;;;;;6.50;2.85;;;14.80;35.80;;;;;;5151840;27;20110;-69
2021/07/01 07:29:45;;;;;;;5.40;2.50;;;14.90;35.80;;;;;;5168681;27;20111;-70
2021/07/01 07:32:26;;;;;;;4.07;2.40;;;14.90;35.00;;;;;;5155939;27;20111;-70
2021/07/01 07:35:08;;;;;;;3.90;2.53;;;14.80;32.00;;;;;;5166670;27;20122;-69
2021/07/01 07:37:47;;;;;;;4.80;3.10;;;15.00;32.70;;;;;;5161870;27;20109;-69
2021/07/01 07:40:27;;;;;;;3.28;2.58;;;15.10;29.30;;;;;;5149214;27;20115;-69
2021/07/01 07:43:13;;;;;;;5.82;3.35;;;15.00;29.90;;;;;;5153078;27;20665;-69
2021/07/01 07:45:55;;;;;;;5.63;3.40;;;15.10;29.80;;;;;;5143376;27;20110;-69
2021/07/01 07:48:36;;;;;;;4.43;3.10;;;15.20;29.30;;;;;;5157946;27;20111;-69
2021/07/01 07:51:18;;;;;;;5.55;2.92;;;15.20;30.30;;;;;;5162634;27;20118;-69
2021/07/01 07:54:02;;;;;;;6.43;3.08;;;15.40;28.80;;;;;;5157536;27;20174;-68
2021/07/01 07:56:44;;;;;;;4.60;3.05;;;15.20;26.10;;;;;;5134399;27;20111;-68
2021/07/01 07:59:29;;;;;;;3.15;2.78;;;15.30;25.00;;;;;;5153089;27;20644;-69
2021/07/01 08:02:20;;;;;;;3.97;2.65;;;15.50;23.90;;;;;;5159577;27;20107;-70
2021/07/01 08:05:02;;;;;;;4.95;2.63;;;15.10;22.00;;;;;;5153936;27;20103;-70
2021/07/01 08:07:42;;;;;;;5.28;3.10;;;15.50;22.10;;;;;;5167156;27;20685;-68
2021/07/01 08:10:27;;;;;;;4.28;2.90;;;15.50;20.20;;;;;;5108655;27;20121;-68
2021/07/01 08:13:07;;;;;;;3.38;2.78;;;15.80;20.60;;;;;;5172567;27;20551;-69
2021/07/01 08:15:46;;;;;;;5.15;3.13;;;15.40;21.00;;;;;;5152206;27;20126;-69
2021/07/01 08:18:36;;;;;;;3.28;2.70;;;15.70;18.90;;;;;;5169228;27;20604;-68
2021/07/01 08:21:16;;;;;;;3.00;2.70;;;15.90;19.00;;;;;;5175416;27;20110;-69
2021/07/01 08:23:55;;;;;;;5.95;2.70;;;15.70;20.30;;;;;;5157266;27;20945;-68
2021/07/01 08:26:35;;;;;;;5.75;4.45;;;15.60;20.00;;;;;;5154651;27;20118;-69
2021/07/01 08:29:18;;;;;;;3.67;2.38;;;15.40;20.90;;;;;;5153596;27;20110;-69
2021/07/01 08:32:05;;;;;;;4.15;2.58;;;15.50;22.30;;;;;;5168420;27;20584;-68
2021/07/01 08:34:45;;;;;;;3.95;2.60;;;15.70;20.70;;;;;;5155881;27;20716;-69
2021/07/01 08:37:24;;;;;;;5.15;2.50;;;15.50;19.60;;;;;;5169686;27;20102;-69
2021/07/01 08:40:06;;;;;;;12.60;8.15;;;15.70;22.40;;;;;;5152058;27;20114;-70
2021/07/01 08:42:45;;;;;;;3.53;2.50;;;15.90;21.60;;;;;;5154157;27;20110;-69
2021/07/01 08:45:40;;;;;;;3.13;2.35;;;16.20;20.30;;;;;;5150584;27;20127;-70
2021/07/01 08:48:23;;;;;;;4.40;2.80;;;16.00;19.80;;;;;;5174098;27;20114;-69
2021/07/01 08:51:07;;;;;;;4.65;3.38;;;15.80;20.60;;;;;;5171812;27;20114;-69
2021/07/01 08:54:13;;;;;;;4.82;2.70;;;16.00;22.30;;;;;;5174027;27;20106;-69
2021/07/01 08:56:56;;;;;;;4.75;3.22;;;16.30;19.40;;;;;;5151422;27;20194;-70
2021/07/01 08:59:43;;;;;;;3.95;2.88;;;16.40;16.60;;;;;;5150845;27;20186;-69
2021/07/01 09:02:30;;;;;;;5.07;2.72;;;16.10;17.10;;;;;;5155200;27;20642;-70
2021/07/01 09:05:13;;;;;;;2.97;2.40;;;16.40;17.50;;;;;;5143366;27;20111;-69
2021/07/01 09:07:53;;;;;;;4.68;2.88;;;16.70;13.10;;;;;;5155744;27;20106;-69
2021/07/01 09:10:34;;;;;;;2.83;2.47;;;16.70;13.60;;;;;;5161709;27;20110;-68
2021/07/01 09:13:17;;;;;;;6.35;2.70;;;16.30;13.50;;;;;;5173847;27;20114;-70
2021/07/01 09:15:56;;;;;;;3.35;2.72;;;16.40;15.20;;;;;;5116546;27;20487;-70
2021/07/01 09:18:41;;;;;;;7.32;2.92;;;16.40;14.90;;;;;;5156990;27;20099;-69
2021/07/01 09:21:22;;;;;;;5.10;2.85;;;16.10;16.40;;;;;;5178684;27;20483;-69
2021/07/01 09:24:04;;;;;;;4.95;2.88;;;16.20;16.20;;;;;;5168519;27;20102;-68
2021/07/01 09:26:48;;;;;;;4.95;2.30;;;16.20;16.40;;;;;;5142112;27;20112;-69
2021/07/01 09:29:28;;;;;;;3.25;2.38;;;15.90;14.90;;;;;;5169071;27;20188;-69
2021/07/01 09:32:09;;;;;;;5.10;2.42;;;15.80;15.10;;;;;;5156790;27;20102;-69
2021/07/01 09:34:49;;;;;;;4.47;2.33;;;15.90;15.70;;;;;;5149937;27;20472;-67
2021/07/01 09:37:40;;;;;;;4.70;2.60;;;15.70;16.00;;;;;;5157864;27;20472;-69
2021/07/01 09:40:22;;;;;;;4.40;2.97;;;15.60;17.20;;;;;;5173043;27;20125;-69
2021/07/01 09:43:04;;;;;;;3.08;2.78;;;15.40;19.20;;;;;;5171640;27;20098;-69
2021/07/01 09:45:49;;;;;;;3.70;3.00;;;15.40;21.10;;;;;;5148908;27;20107;-69
2021/07/01 09:48:32;;;;;;;4.97;3.20;;;15.60;20.60;;;;;;5170116;27;20114;-68
2021/07/01 09:51:13;;;;;;;6.00;3.33;;;15.70;20.80;;;;;;5157473;27;20114;-69
2021/07/01 09:53:54;;;;;;;4.65;3.33;;;15.60;19.70;;;;;;5128021;27;20486;-69
2021/07/01 09:56:39;;;;;;;4.72;3.30;;;15.80;19.00;;;;;;5141688;27;20122;-69
2021/07/01 09:59:25;;;;;;;5.47;3.25;;;16.00;20.10;;;;;;5153482;27;20122;-69
2021/07/01 10:02:19;;;;;;;6.20;3.70;;;16.00;19.70;;;;;;5170316;27;20373;-69
2021/07/01 10:05:00;;;;;;;5.18;3.40;;;15.90;19.00;;;;;;5146763;27;20384;-69
2021/07/01 10:07:49;;;;;;;4.57;3.45;;;15.90;19.40;;;;;;5152539;27;20105;-69
2021/07/01 10:10:29;;;;;;;3.30;2.97;;;15.90;20.50;;;;;;5156258;27;20110;-70
2021/07/01 10:13:12;;;;;;;4.68;3.67;;;16.00;20.60;;;;;;5174157;27;20125;-69
2021/07/01 10:15:52;;;;;;;4.90;3.95;;;15.70;24.50;;;;;;5148457;27;20106;-69
2021/07/01 10:18:41;;;;;;;5.55;3.95;;;15.80;32.60;;;;;;5163659;27;20113;-70
2021/07/01 10:21:21;;;;;;;5.13;3.50;;;15.60;35.30;;;;;;5159037;27;20119;-69
2021/07/01 10:24:12;;;;;;;2.80;2.50;;;15.20;34.90;;;;;;5092249;27;20125;-69
2021/07/01 10:26:52;;;;;;;5.43;2.80;;;15.00;38.30;;;;;;5157620;27;20110;-69
2021/07/01 10:29:39;;;;;;;3.42;3.00;;;14.90;38.60;;;;;;5160684;27;20109;-69
2021/07/01 10:32:39;;;;;;;3.85;3.30;;;14.60;40.20;;;;;;5174899;27;20524;-68
2021/07/01 10:35:24;;;;;;;4.05;3.20;;;14.70;38.90;;;;;;5146387;27;19915;-73
2021/07/01 10:38:07;;;;;;;4.13;2.83;;;15.00;35.50;;;;;;5173359;27;19915;-73
2021/07/01 10:40:52;;;;;;;4.45;2.97;;;14.70;32.60;;;;;;5155763;27;20820;-74
2021/07/01 10:43:42;;;;;;;4.53;3.10;;;14.90;32.80;;;;;;5157904;27;20137;-74
2021/07/01 10:46:22;;;;;;;4.35;3.75;;;14.90;27.00;;;;;;5166106;27;20113;-72
2021/07/01 10:49:03;;;;;;;5.40;3.75;;;15.10;30.60;;;;;;5151772;27;20123;-74
2021/07/01 10:52:06;;;;;;;5.55;3.35;;;15.40;25.80;;;;;;5156744;27;20122;-73
2021/07/01 10:54:57;;;;;;;4.57;3.83;;;15.90;26.50;;;;;;5151887;27;20122;-72
2021/07/01 10:57:54;;;;;;;5.40;3.15;;;15.60;22.40;;;;;;5163684;27;20098;-75
2021/07/01 11:00:43;;;;;;;5.05;3.75;;;15.70;18.30;;;;;;5157738;27;20353;-74
2021/07/01 11:03:39;;;;;;;3.38;3.03;;;15.80;17.80;;;;;;5154520;27;20126;-72
2021/07/01 11:06:34;;;;;;;5.07;3.22;;;16.00;17.20;;;;;;5144138;27;20115;-72
2021/07/01 11:09:15;;;;;;;7.47;3.22;;;15.90;18.00;;;;;;5169474;27;20117;-73
2021/07/01 11:12:03;;;;;;;5.97;3.33;;;16.40;16.60;;;;;;5160971;27;20118;-74
2021/07/01 11:14:46;;;;;;;3.85;3.30;;;17.00;16.20;;;;;;5158063;27;20449;-72
2021/07/01 11:17:33;;;;;;;3.10;2.70;;;17.20;13.00;;;;;;5171149;27;20114;-73
2021/07/01 11:20:16;;;;;;;3.97;2.80;;;17.00;12.60;;;;;;5156436;27;20110;-74
2021/07/01 11:22:57;;;;;;;4.45;2.83;;;17.30;10.70;;;;;;5160194;27;20121;-72
2021/07/01 11:25:38;;;;;;;6.32;3.25;;;17.40;9.20;;;;;;5159717;27;20688;-73
2021/07/01 11:28:21;;;;;;;6.15;2.92;;;17.40;10.50;;;;;;5167986;27;20119;-72
2021/07/01 11:31:02;;;;;;;3.30;2.42;;;16.90;7.60;;;;;;5175342;27;20503;-72
2021/07/01 11:33:49;;;;;;;7.90;2.90;;;16.80;8.70;;;;;;5155697;27;20114;-72
2021/07/01 11:36:30;;;;;;;4.47;3.20;;;16.70;8.70;;;;;;5141621;27;20119;-73
2021/07/01 11:39:13;;;;;;;4.60;3.00;;;17.00;8.60;;;;;;5169567;27;20572;-74
2021/07/01 11:41:53;;;;;;;4.93;3.45;;;17.00;8.90;;;;;;5157113;27;20130;-75
2021/07/01 11:44:33;;;;;;;5.45;4.15;;;16.70;7.80;;;;;;5170257;27;20130;-75
2021/07/01 11:47:16;;;;;;;5.85;3.22;;;16.90;7.90;;;;;;5151367;27;20119;-75
2021/07/01 11:49:57;;;;;;;7.03;3.17;;;16.80;8.30;;;;;;5154226;27;20122;-74
2021/07/01 11:52:40;;;;;;;6.20;3.30;;;16.90;7.20;;;;;;5101494;27;20577;-73
2021/07/01 11:55:20;;;;;;;6.00;3.30;;;17.00;7.20;;;;;;5160283;27;20126;-73
2021/07/01 11:57:59;;;;;;;4.18;3.20;;;16.90;5.80;;;;;;5171008;27;20121;-73
2021/07/01 12:00:39;;;;;;;6.90;3.20;;;16.80;5.00;;;;;;5153853;27;20115;-71
2021/07/01 12:03:20;;;;;;;6.25;3.00;;;17.30;5.30;;;;;;5173384;27;20565;-74
2021/07/01 12:05:59;;;;;;;5.00;2.97;;;17.60;5.60;;;;;;5146769;27;20126;-72
2021/07/01 12:08:38;;;;;;;2.88;2.58;;;17.40;5.70;;;;;;5096792;27;20344;-72
2021/07/01 12:11:18;;;;;;;3.45;2.58;;;17.40;3.90;;;;;;5159474;27;20119;-72
2021/07/01 12:14:00;;;;;;;5.28;2.70;;;17.60;1.70;;;;;;5159298;27;20185;-72
2021/07/01 12:16:41;;;;;;;3.38;2.70;;;17.40;2.40;;;;;;5153539;27;20115;-72
2021/07/01 12:19:20;;;;;;;4.03;2.95;;;17.50;1.40;;;;;;5152604;27;20134;-72
2021/07/01 12:22:00;;;;;;;5.03;2.60;;;17.50;1.60;;;;;;5164109;27;20111;-74
2021/07/01 12:24:40;;;;;;;3.60;2.63;;;17.80;2.00;;;;;;5167497;27;20102;-70
2021/07/01 12:27:30;;;;;;;4.68;2.58;;;17.90;1.00;;;;;;5108239;27;20116;-71
2021/07/01 12:30:10;;;;;;;5.53;2.70;;;18.10;1.00;;;;;;5158315;27;20117;-73
2021/07/01 12:32:51;;;;;;;4.40;2.42;;;18.00;1.00;;;;;;5137339;27;20242;-72
2021/07/01 12:35:41;;;;;;;2.80;2.50;;;18.40;1.00;;;;;;5104160;27;20125;-73
2021/07/01 12:38:22;;;;;;;3.53;2.70;;;18.10;1.00;;;;;;5173508;27;20197;-72
2021/07/01 12:41:04;;;;;;;5.03;2.83;;;18.00;1.00;;;;;;5153457;27;20515;-71
2021/07/01 12:43:59;;;;;;;4.20;2.47;;;18.20;1.00;;;;;;5152024;27;20115;-73
2021/07/01 12:47:11;;;;;;;4.70;2.78;;;18.10;1.00;;;;;;5139812;27;20372;-74
2021/07/01 12:49:59;;;;;;;4.10;2.78;;;18.30;1.00;;;;;;5159786;27;20372;-71
2021/07/01 12:52:47;;;;;;;5.70;2.92;;;18.80;1.00;;;;;;5174653;27;20364;-71
2021/07/01 12:55:27;;;;;;;4.15;2.80;;;19.20;1.00;;;;;;5149981;27;20126;-74
2021/07/01 12:58:06;;;;;;;3.13;2.83;;;18.20;1.00;;;;;;5154294;27;20123;-72
2021/07/01 13:00:46;;;;;;;4.28;2.85;;;17.90;1.00;;;;;;5156533;27;20117;-71
2021/07/01 13:03:28;;;;;;;5.18;3.30;;;18.30;1.00;;;;;;5162252;27;20111;-72
2021/07/01 13:06:08;;;;;;;6.72;3.35;;;18.40;1.00;;;;;;5164324;27;20110;-72
2021/07/01 13:08:48;;;;;;;18.95;3.17;;;18.40;1.00;;;;;;5154752;27;20123;-71
2021/07/01 13:11:41;;;;;;;3.95;3.00;;;19.10;1.00;;;;;;5161616;27;20110;-71
2021/07/01 13:14:23;;;;;;;5.15;3.45;;;18.40;1.00;;;;;;5155041;27;20126;-72
2021/07/01 13:17:05;;;;;;;6.57;2.75;;;17.90;1.00;;;;;;5137666;27;20110;-70
2021/07/01 13:19:49;;;;;;;5.00;3.22;;;18.00;1.00;;;;;;5156591;27;20115;-72
2021/07/01 13:22:30;;;;;;;4.13;2.95;;;17.50;1.00;;;;;;5156776;27;20117;-72
2021/07/01 13:25:12;;;;;;;5.63;3.90;;;17.00;1.00;;;;;;5150137;27;20128;-71
2021/07/01 13:27:54;;;;;;;4.55;3.33;;;17.30;1.40;;;;;;5152952;27;20111;-71
2021/07/01 13:30:35;;;;;;;5.28;2.85;;;17.10;1.00;;;;;;5153400;27;20115;-72
2021/07/01 13:33:18;;;;;;;4.88;3.30;;;16.80;1.10;;;;;;5170499;27;20291;-71
2021/07/01 13:35:57;;;;;;;4.43;2.97;;;16.90;1.30;;;;;;5159888;27;20113;-72
2021/07/01 13:38:37;;;;;;;4.50;3.40;;;17.10;1.30;;;;;;5166052;27;20122;-71
2021/07/01 13:41:17;;;;;;;3.35;2.85;;;16.90;1.70;;;;;;5177138;27;20106;-71
2021/07/01 13:44:10;;;;;;;4.95;3.17;;;17.00;2.50;;;;;;5157847;27;20588;-72
2021/07/01 13:46:52;;;;;;;4.85;3.00;;;16.90;3.70;;;;;;5142749;27;20182;-73
2021/07/01 13:49:32;;;;;;;4.32;3.35;;;16.40;5.40;;;;;;5169134;27;20201;-72
2021/07/01 13:52:16;;;;;;;4.00;3.13;;;16.30;8.40;;;;;;5157925;27;20193;-72
2021/07/01 13:54:56;;;;;;;6.93;3.22;;;16.20;10.60;;;;;;5157271;27;20122;-72
2021/07/01 13:57:36;;;;;;;4.55;3.35;;;16.10;12.80;;;;;;5165686;27;20565;-71
2021/07/01 14:00:20;;;;;;;5.80;3.70;;;15.70;15.40;;;;;;5156202;27;20110;-72
2021/07/01 14:03:03;;;;;;;4.40;3.55;;;15.80;17.90;;;;;;5157341;27;20544;-72
2021/07/01 14:05:45;;;;;;;4.55;3.42;;;15.60;17.60;;;;;;5148065;27;20119;-72
2021/07/01 14:08:27;;;;;;;4.72;3.53;;;15.60;17.10;;;;;;5156220;27;20651;-72
2021/07/01 14:11:09;;;;;;;4.95;3.22;;;15.60;17.00;;;;;;5149229;27;20115;-73
2021/07/01 14:13:50;;;;;;;5.60;3.08;;;15.80;18.10;;;;;;5155634;27;20114;-72
2021/07/01 14:16:33;;;;;;;6.32;3.58;;;15.60;17.00;;;;;;5133158;27;20124;-72